Airway Heights, WA

4:00 AM PST on December 28, 2014 (GMT -0800)
Spokane International | Change Station
CLOSE
Current Station
Airport
Location: Spokane,
Elevation: 2365 ft
Nearby Weather Stations

Elev 2365 ft 47.62 °N, 117.53 °W | Updated 7 minutes ago

Overcast
Overcast
29 °F
Feels Like 20 °F
N
9
Wind Variable Wind from WSW

Today
High -- | Low -- °F
--% Chance of Precip.
Yesterday
High -- | Low -- °F
Precip. -- in
7:38 AM 4:05 PM
Waxing Crescent, 47% visible
Pressure 29.99 in
Visibility 9.0 miles
Clouds Few 2000 ft
Scattered Clouds 5000 ft
Mostly Cloudy 7500 ft
Windchill 20 °F
Dew Point 28 °F
Humidity 96%
Rainfall 0.01 in
Snow Depth Not available.
UV 0 out of 12
Pollen .10 out of 12
Air Quality Not available.
Flu Activity Not available.
METAR KGEG 281153Z 24008KT 9SM FEW020 SCT050 BKN075 M02/M02 A2993 RMK AO2 SNE51 SLP153 4/001 P0000 60001 70021 T10171022 10006 21017 51011

More Conditions Fewer Conditions

Pressure 29.99 in
Visibility 9.0 miles
Clouds Few 2000 ft
Scattered Clouds 5000 ft
Mostly Cloudy 7500 ft
Windchill 20 °F
Dew Point 28 °F
Humidity 96%
Rainfall 0.01 in
Snow Depth Not available.
UV 0 out of 12
Pollen .10 out of 12
Air Quality Not available.
Flu Activity Not available.
METAR KGEG 281153Z 24008KT 9SM FEW020 SCT050 BKN075 M02/M02 A2993 RMK AO2 SNE51 SLP153 4/001 P0000 60001 70021 T10171022 10006 21017 51011

More Conditions Fewer Conditions

10-Day Weather Forecast

Almanac

Astronomy

Dec. 28, 2014 Rise Set
Actual Time
Civil Twilight
Nautical Twilight
Astronomical Twilight
Moon
Length of Visible Light
Length of Day
Tomorrow will be .
, % of the Moon is Illuminated

Today's Extremes

State Highs State Lows

Community

WunderPhotos

Upload Photos

1,781,231 photos uploaded!

WunderBlogs® & News

Nearby

Air Quality

  Air Quality AQ Index Pollutant
Not available.

Snow Depth

Station Depth Elevation

Earthquake Activity

City Distance Mag. Time & Date
Minimum magnitude displayed is 2.5.

Coastal Water Temperatures

Place Temperature

Nearby Weather Stations